createdAt,value
2023-01-19T00:01:00.275Z,98786.56
2023-01-19T00:03:28.769Z,98795.09
2023-01-19T00:05:57.373Z,98789.88
2023-01-19T00:08:25.744Z,98791.50
2023-01-19T00:10:54.204Z,98794.00
2023-01-19T00:13:22.734Z,98808.03
2023-01-19T00:15:52.688Z,98814.09
2023-01-19T00:18:21.314Z,98797.56
2023-01-19T00:20:50.486Z,98816.94
2023-01-19T00:23:18.926Z,98818.06
2023-01-19T00:25:49.205Z,98817.66
2023-01-19T00:28:19.696Z,98827.31
2023-01-19T00:30:48.154Z,98823.47
2023-01-19T00:33:18.003Z,98832.41
2023-01-19T00:35:46.421Z,98832.81
2023-01-19T00:38:15.000Z,98825.25
2023-01-19T00:40:43.399Z,98813.97
2023-01-19T00:43:11.834Z,98834.19
2023-01-19T00:45:40.301Z,98836.28
2023-01-19T00:48:08.876Z,98836.28
2023-01-19T00:50:39.444Z,98827.31
2023-01-19T00:53:07.895Z,98824.28
2023-01-19T00:55:36.588Z,98847.13
2023-01-19T00:58:05.041Z,98850.16
2023-01-19T01:00:33.521Z,98867.50
2023-01-19T01:03:02.432Z,98859.34
2023-01-19T01:05:31.151Z,98855.91
2023-01-19T01:08:00.996Z,98887.56
2023-01-19T01:10:30.785Z,98866.91
2023-01-19T01:12:59.281Z,98880.66
2023-01-19T01:15:30.755Z,98872.81
2023-01-19T01:17:59.254Z,98872.56
2023-01-19T01:20:30.714Z,98869.13
2023-01-19T01:23:00.900Z,98883.16
2023-01-19T01:25:31.256Z,98878.91
2023-01-19T01:27:59.706Z,98869.94
2023-01-19T01:30:28.256Z,98873.41
2023-01-19T01:32:56.767Z,98875.44
2023-01-19T01:35:25.279Z,98883.72
2023-01-19T01:37:53.681Z,98893.34
2023-01-19T01:40:23.627Z,98886.44
2023-01-19T01:42:52.089Z,98891.41
2023-01-19T01:45:31.860Z,98896.78
2023-01-19T01:48:04.839Z,98904.31
2023-01-19T01:50:36.721Z,98902.75
2023-01-19T01:53:10.245Z,98898.22
2023-01-19T01:55:44.781Z,98900.84
2023-01-19T01:58:14.440Z,98898.91
2023-01-19T02:01:01.329Z,98901.25
2023-01-19T02:03:30.336Z,98891.28
2023-01-19T02:06:01.943Z,98896.84
2023-01-19T02:08:53.097Z,98899.97
2023-01-19T02:11:41.630Z,98898.84
2023-01-19T02:14:10.123Z,98904.47
2023-01-19T02:16:39.607Z,98903.44
2023-01-19T02:19:10.405Z,98898.31
2023-01-19T02:21:48.186Z,98903.72
2023-01-19T02:24:18.286Z,98913.72
2023-01-19T02:26:49.035Z,98915.47
2023-01-19T02:29:20.473Z,98917.72
2023-01-19T02:31:49.223Z,98917.91
2023-01-19T02:34:20.595Z,98911.28
2023-01-19T02:36:53.518Z,98926.84
2023-01-19T02:39:39.195Z,98918.03
2023-01-19T02:42:11.214Z,98919.25
2023-01-19T02:44:41.336Z,98915.25
2023-01-19T02:47:09.875Z,98920.72
2023-01-19T02:49:38.352Z,98919.50
2023-01-19T02:52:07.693Z,98919.63
2023-01-19T02:54:48.526Z,98917.00
2023-01-19T02:57:32.220Z,98919.75
2023-01-19T03:00:10.348Z,98909.88
2023-01-19T03:02:49.850Z,98909.84
2023-01-19T03:05:30.992Z,98920.28
2023-01-19T03:08:08.615Z,98913.16
2023-01-19T03:10:48.165Z,98927.84
2023-01-19T03:13:20.726Z,98917.41
2023-01-19T03:15:52.972Z,98930.72
2023-01-19T03:18:25.116Z,98928.22
2023-01-19T03:20:57.282Z,98934.03
2023-01-19T03:23:30.634Z,98931.41
2023-01-19T03:26:02.463Z,98932.38
2023-01-19T03:28:32.315Z,98927.16
2023-01-19T03:31:05.959Z,98927.84
2023-01-19T03:33:37.648Z,98922.22
2023-01-19T03:36:12.404Z,98923.69
2023-01-19T03:38:44.400Z,98921.03
2023-01-19T03:41:18.199Z,98925.75
2023-01-19T03:43:49.049Z,98925.28
2023-01-19T03:46:19.252Z,98928.72
2023-01-19T03:48:48.800Z,98920.78
2023-01-19T03:51:19.705Z,98923.38
2023-01-19T03:53:50.153Z,98924.34
2023-01-19T03:56:25.231Z,98923.25
2023-01-19T03:58:55.056Z,98922.53
2023-01-19T04:01:25.415Z,98925.03
2023-01-19T04:03:54.353Z,98919.69
2023-01-19T04:06:22.975Z,98936.44
2023-01-19T04:08:53.309Z,98929.66
2023-01-19T04:11:23.221Z,98941.50
2023-01-19T04:13:51.915Z,98946.03
2023-01-19T04:16:21.480Z,98953.03
2023-01-19T04:18:50.234Z,98930.06
2023-01-19T04:21:18.737Z,98948.28
2023-01-19T04:23:47.623Z,98950.63
2023-01-19T04:26:16.114Z,98957.63
2023-01-19T04:28:46.107Z,98965.16
2023-01-19T04:31:14.724Z,98963.81
2023-01-19T04:33:43.208Z,98972.22
2023-01-19T04:36:11.695Z,98962.97
2023-01-19T04:38:40.212Z,98983.47
2023-01-19T04:41:08.770Z,98990.59
2023-01-19T04:43:37.351Z,98991.19
2023-01-19T04:46:07.391Z,98999.53
2023-01-19T04:48:35.910Z,99012.31
2023-01-19T04:51:04.642Z,99011.72
2023-01-19T04:53:33.092Z,99012.19
2023-01-19T04:56:01.669Z,99027.59
2023-01-19T04:58:30.122Z,99026.28
2023-01-19T05:00:58.717Z,99033.88
2023-01-19T05:03:28.790Z,99015.41
2023-01-19T05:05:57.336Z,99022.28
2023-01-19T05:08:25.851Z,99023.94
2023-01-19T05:10:54.378Z,99044.81
2023-01-19T05:13:22.878Z,99046.22
2023-01-19T05:15:52.008Z,99047.88
2023-01-19T05:18:20.764Z,99046.22
2023-01-19T05:20:50.683Z,99045.13
2023-01-19T05:23:19.224Z,99041.97
2023-01-19T05:25:47.667Z,99028.44
2023-01-19T05:28:17.015Z,99028.94
2023-01-19T05:30:45.580Z,99020.06
2023-01-19T05:33:14.151Z,99039.38
2023-01-19T05:35:42.768Z,99038.69
2023-01-19T05:38:13.612Z,99039.75
2023-01-19T05:40:43.000Z,99034.44
2023-01-19T05:43:12.543Z,99037.41
2023-01-19T05:45:41.488Z,99035.16
2023-01-19T05:48:10.500Z,99039.88
2023-01-19T05:50:38.976Z,99039.03
2023-01-19T05:53:07.473Z,99064.28
2023-01-19T05:55:40.034Z,99058.34
2023-01-19T05:58:08.620Z,99072.56
2023-01-19T06:00:37.442Z,99053.50
2023-01-19T06:03:06.776Z,99070.31
2023-01-19T06:05:35.826Z,99083.59
2023-01-19T06:08:04.318Z,99082.78
2023-01-19T06:10:32.819Z,99099.19
2023-01-19T06:13:03.179Z,99097.13
2023-01-19T06:15:31.871Z,99093.81
2023-01-19T06:18:00.402Z,99076.63
2023-01-19T06:20:28.939Z,99095.22
2023-01-19T06:22:58.990Z,99099.41
2023-01-19T06:25:27.699Z,99093.03
2023-01-19T06:27:56.243Z,99102.50
2023-01-19T06:30:26.530Z,99097.41
2023-01-19T06:32:55.136Z,99094.94
2023-01-19T06:35:23.698Z,99119.09
2023-01-19T06:37:52.383Z,99128.47
2023-01-19T06:40:20.970Z,99137.88
2023-01-19T06:42:53.253Z,99140.81
2023-01-19T06:45:21.685Z,99146.88
2023-01-19T06:47:51.765Z,99148.41
2023-01-19T06:50:20.372Z,99135.03
2023-01-19T06:52:51.709Z,99137.00
2023-01-19T06:55:20.496Z,99143.41
2023-01-19T06:57:48.953Z,99129.66
2023-01-19T07:00:18.587Z,99154.22
2023-01-19T07:02:47.047Z,99155.50
2023-01-19T07:05:17.005Z,99151.03
2023-01-19T07:07:46.254Z,99149.97
2023-01-19T07:10:16.558Z,99148.38
2023-01-19T07:12:47.593Z,99119.47
2023-01-19T07:15:17.174Z,99137.72
2023-01-19T07:17:48.646Z,99130.38
2023-01-19T07:20:19.881Z,99145.56
2023-01-19T07:22:49.114Z,99142.00
2023-01-19T07:25:18.290Z,99140.22
2023-01-19T07:27:46.778Z,99140.44
2023-01-19T07:30:16.240Z,99143.28
2023-01-19T07:32:44.684Z,99153.59
2023-01-19T07:35:13.157Z,99150.97
2023-01-19T07:37:43.088Z,99142.44
2023-01-19T07:40:12.753Z,99144.84
2023-01-19T07:42:41.543Z,99150.91
2023-01-19T07:45:11.002Z,99135.72
2023-01-19T07:47:39.586Z,99150.28
2023-01-19T07:50:09.217Z,99142.84
2023-01-19T07:52:37.908Z,99153.38
2023-01-19T07:55:09.159Z,99148.75
2023-01-19T07:57:38.233Z,99140.09
2023-01-19T08:00:09.052Z,99150.78
2023-01-19T08:02:38.169Z,99140.50
2023-01-19T08:05:07.456Z,99147.94
2023-01-19T08:07:36.300Z,99146.03
2023-01-19T08:10:04.813Z,99163.00
2023-01-19T08:12:34.983Z,99174.16
2023-01-19T08:15:03.697Z,99173.94
2023-01-19T08:17:32.601Z,99172.72
2023-01-19T08:20:01.258Z,99181.50
2023-01-19T08:22:29.857Z,99184.69
2023-01-19T08:24:58.418Z,99191.56
2023-01-19T08:27:27.382Z,99192.44
2023-01-19T08:29:59.249Z,99180.19
2023-01-19T08:32:27.776Z,99191.97
2023-01-19T08:34:56.287Z,99191.81
2023-01-19T08:37:25.050Z,99203.59
2023-01-19T08:39:54.195Z,99199.78
2023-01-19T08:42:22.627Z,99183.53
2023-01-19T08:44:58.186Z,99196.94
2023-01-19T08:47:28.540Z,99193.59
2023-01-19T08:49:57.101Z,99192.44
2023-01-19T08:52:26.907Z,99192.75
2023-01-19T08:54:55.348Z,99200.09
2023-01-19T08:57:23.793Z,99197.97
2023-01-19T08:59:52.336Z,99188.94
2023-01-19T09:02:20.850Z,99191.69
2023-01-19T09:04:50.773Z,99220.78
2023-01-19T09:07:20.543Z,99217.31
2023-01-19T09:09:48.979Z,99217.78
2023-01-19T09:12:17.568Z,99213.28
2023-01-19T09:14:46.147Z,99210.19
2023-01-19T09:17:15.075Z,99217.22
2023-01-19T09:19:43.468Z,99212.44
2023-01-19T09:22:13.456Z,99224.69
2023-01-19T09:24:41.972Z,99232.75
2023-01-19T09:27:10.467Z,99229.69
2023-01-19T09:29:38.945Z,99243.44
2023-01-19T09:32:07.744Z,99241.41
2023-01-19T09:34:36.223Z,99231.59
2023-01-19T09:37:05.214Z,99250.81
2023-01-19T09:39:35.166Z,99243.31
2023-01-19T09:42:15.107Z,99239.66
2023-01-19T09:44:46.597Z,99252.72
2023-01-19T09:47:17.194Z,99244.25
2023-01-19T09:49:51.629Z,99254.72
2023-01-19T09:52:20.677Z,99247.47
2023-01-19T09:54:55.798Z,99233.66
2023-01-19T09:57:25.318Z,99232.97
2023-01-19T09:59:58.215Z,99228.09
2023-01-19T10:02:38.442Z,99233.88
2023-01-19T10:05:18.844Z,99220.00
2023-01-19T10:07:59.092Z,99214.03
2023-01-19T10:10:30.322Z,99203.69
2023-01-19T10:13:24.221Z,99214.28
2023-01-19T10:16:01.591Z,99206.69
2023-01-19T10:18:43.481Z,99207.50
2023-01-19T10:21:16.068Z,99194.34
2023-01-19T10:23:47.840Z,99209.38
2023-01-19T10:26:21.565Z,99209.13
2023-01-19T10:28:52.811Z,99207.63
2023-01-19T10:31:25.379Z,99218.06
2023-01-19T10:33:54.770Z,99215.78
2023-01-19T10:36:27.731Z,99217.34
2023-01-19T10:38:56.198Z,99207.69
2023-01-19T10:41:33.154Z,99230.19
2023-01-19T10:44:03.448Z,99226.09
2023-01-19T10:46:39.255Z,99209.47
2023-01-19T10:49:08.810Z,99226.63
2023-01-19T10:51:49.070Z,99223.22
2023-01-19T10:54:18.497Z,99219.38
2023-01-19T10:56:54.998Z,99222.00
2023-01-19T10:59:35.995Z,99212.53
2023-01-19T11:02:15.244Z,99209.81
2023-01-19T11:04:48.215Z,99219.19
2023-01-19T11:07:21.774Z,99224.16
2023-01-19T11:09:51.267Z,99221.94
2023-01-19T11:12:24.457Z,99223.34
2023-01-19T11:14:56.082Z,99227.88
2023-01-19T11:17:26.617Z,99228.31
2023-01-19T11:19:58.219Z,99226.41
2023-01-19T11:22:30.176Z,99213.69
2023-01-19T11:25:02.256Z,99212.19
2023-01-19T11:27:35.981Z,99205.22
2023-01-19T11:30:10.645Z,99212.47
2023-01-19T11:32:39.135Z,99208.91
2023-01-19T11:35:40.126Z,99206.28
2023-01-19T11:38:17.459Z,99211.88
2023-01-19T11:40:55.301Z,99205.75
2023-01-19T11:43:43.365Z,99195.66
2023-01-19T11:46:17.205Z,99200.72
2023-01-19T11:48:53.124Z,99204.38
2023-01-19T11:51:24.219Z,99195.47
2023-01-19T11:53:54.261Z,99196.44
2023-01-19T11:56:28.488Z,99198.34
2023-01-19T11:58:58.536Z,99168.41
2023-01-19T12:01:31.505Z,99196.38
2023-01-19T12:04:04.743Z,99189.53
2023-01-19T12:06:36.557Z,99179.34
2023-01-19T12:09:13.523Z,99179.50
2023-01-19T12:11:46.833Z,99170.50
2023-01-19T12:14:21.350Z,99170.06
2023-01-19T12:16:52.545Z,99168.84
2023-01-19T12:19:26.541Z,99175.03
2023-01-19T12:21:55.693Z,99166.84
2023-01-19T12:24:33.540Z,99172.50
2023-01-19T12:27:06.266Z,99164.59
2023-01-19T12:29:37.550Z,99159.97
2023-01-19T12:32:34.570Z,99161.34
2023-01-19T12:35:03.173Z,99173.75
2023-01-19T12:37:39.469Z,99158.09
2023-01-19T12:40:27.972Z,99162.13
2023-01-19T12:43:03.408Z,99170.56
2023-01-19T12:45:34.857Z,99174.47
2023-01-19T12:48:05.264Z,99176.94
2023-01-19T12:50:38.022Z,99173.63
2023-01-19T12:53:17.929Z,99180.53
2023-01-19T12:55:47.781Z,99181.50
2023-01-19T12:58:19.225Z,99177.78
2023-01-19T13:00:50.837Z,99181.38
2023-01-19T13:03:44.997Z,99187.16
2023-01-19T13:06:13.476Z,99176.69
2023-01-19T13:08:57.226Z,99185.47
2023-01-19T13:11:27.888Z,99181.63
2023-01-19T13:14:39.694Z,99188.00
2023-01-19T13:17:24.562Z,99185.50
2023-01-19T13:20:02.952Z,99178.50
2023-01-19T13:23:19.567Z,99181.38
2023-01-19T13:25:54.266Z,99172.81
2023-01-19T13:28:31.857Z,99180.56
2023-01-19T13:31:04.026Z,99185.41
2023-01-19T13:33:43.729Z,99186.66
2023-01-19T13:36:21.944Z,99187.47
2023-01-19T13:38:52.458Z,99187.44
2023-01-19T13:41:24.589Z,99206.38
2023-01-19T13:44:00.156Z,99196.88
2023-01-19T13:46:30.413Z,99207.31
2023-01-19T13:49:04.247Z,99203.59
2023-01-19T13:51:32.725Z,99194.78
2023-01-19T13:54:03.028Z,99197.97
2023-01-19T13:56:32.156Z,99214.94
2023-01-19T13:59:05.179Z,99213.84
2023-01-19T14:01:34.430Z,99212.31
2023-01-19T14:04:04.707Z,99214.78
2023-01-19T14:06:39.783Z,99219.16
2023-01-19T14:09:18.231Z,99208.13
2023-01-19T14:11:48.578Z,99216.63
2023-01-19T14:14:25.151Z,99216.34
2023-01-19T14:16:53.764Z,99219.09
2023-01-19T14:19:23.996Z,99221.88
2023-01-19T14:22:04.053Z,99227.38
2023-01-19T14:24:33.448Z,99222.22
2023-01-19T14:27:23.308Z,99220.22
2023-01-19T14:29:54.997Z,99217.41
2023-01-19T14:32:24.960Z,99221.81
2023-01-19T14:35:15.749Z,99231.66
2023-01-19T14:37:49.099Z,99221.31
2023-01-19T14:40:20.332Z,99244.44
2023-01-19T14:42:54.088Z,99236.50
2023-01-19T14:45:25.388Z,99246.72
2023-01-19T14:48:00.854Z,99244.38
2023-01-19T14:50:34.032Z,99239.38
2023-01-19T14:53:05.490Z,99242.41
2023-01-19T14:55:38.388Z,99239.53
2023-01-19T14:58:13.815Z,99241.31
2023-01-19T15:00:43.422Z,99260.22
2023-01-19T15:03:12.468Z,99254.44
2023-01-19T15:05:46.307Z,99265.63
2023-01-19T15:08:18.216Z,99276.94
2023-01-19T15:10:47.322Z,99275.84
2023-01-19T15:13:20.122Z,99273.09
2023-01-19T15:15:50.042Z,99277.91
2023-01-19T15:18:22.490Z,99269.22
2023-01-19T15:20:52.514Z,99270.84
2023-01-19T15:23:21.024Z,99281.44
2023-01-19T15:25:51.230Z,99275.78
2023-01-19T15:28:21.250Z,99278.81
2023-01-19T15:30:50.071Z,99286.38
2023-01-19T15:33:22.794Z,99280.16
2023-01-19T15:35:53.442Z,99291.19
2023-01-19T15:38:22.665Z,99275.41
2023-01-19T15:40:51.978Z,99281.59
2023-01-19T15:43:21.275Z,99285.72
2023-01-19T15:45:53.190Z,99290.53
2023-01-19T15:48:22.623Z,99294.63
2023-01-19T15:50:52.700Z,99297.25
2023-01-19T15:53:24.272Z,99289.09
2023-01-19T15:55:55.656Z,99297.09
2023-01-19T15:58:24.351Z,99292.50
2023-01-19T16:00:56.730Z,99294.28
2023-01-19T16:03:25.622Z,99277.25
2023-01-19T16:05:55.591Z,99287.28
2023-01-19T16:08:24.138Z,99297.50
2023-01-19T16:10:52.656Z,99293.22
2023-01-19T16:13:21.190Z,99295.91
2023-01-19T16:15:49.750Z,99290.59
2023-01-19T16:18:19.306Z,99294.56
2023-01-19T16:20:47.911Z,99290.22
2023-01-19T16:23:18.017Z,99295.59
2023-01-19T16:25:46.557Z,99287.41
2023-01-19T16:28:15.001Z,99303.25
2023-01-19T16:30:43.553Z,99305.66
2023-01-19T16:33:14.019Z,99308.53
2023-01-19T16:35:42.647Z,99308.06
2023-01-19T16:38:11.529Z,99312.16
2023-01-19T16:40:41.640Z,99301.44
2023-01-19T16:43:12.271Z,99276.69
2023-01-19T16:45:59.457Z,99298.63
2023-01-19T16:48:29.040Z,99309.22
2023-01-19T16:51:07.020Z,99295.81
2023-01-19T16:53:37.451Z,99313.06
2023-01-19T16:56:13.933Z,99305.72
2023-01-19T16:58:45.172Z,99304.88
2023-01-19T17:01:20.481Z,99293.16
2023-01-19T17:03:50.196Z,99316.75
2023-01-19T17:06:26.678Z,99296.34
2023-01-19T17:08:56.903Z,99304.19
2023-01-19T17:11:32.156Z,99305.63
2023-01-19T17:14:05.041Z,99324.78
2023-01-19T17:16:38.072Z,99308.16
2023-01-19T17:19:09.355Z,99299.47
2023-01-19T17:21:39.887Z,99309.81
2023-01-19T17:24:11.195Z,99318.38
2023-01-19T17:26:46.624Z,99296.16
2023-01-19T17:29:16.644Z,99313.34
2023-01-19T17:31:46.287Z,99334.47
2023-01-19T17:34:16.496Z,99311.34
2023-01-19T17:36:47.563Z,99325.81
2023-01-19T17:39:19.302Z,99315.47
2023-01-19T17:41:50.416Z,99325.09
2023-01-19T17:44:19.946Z,99322.72
2023-01-19T17:46:50.704Z,99336.81
2023-01-19T17:49:21.513Z,99359.03
2023-01-19T17:51:54.925Z,99334.44
2023-01-19T17:54:26.793Z,99340.00
2023-01-19T17:56:58.443Z,99341.88
2023-01-19T17:59:30.118Z,99365.63
2023-01-19T18:02:02.881Z,99367.50
2023-01-19T18:04:32.300Z,99357.53
2023-01-19T18:07:01.264Z,99345.16
2023-01-19T18:09:30.259Z,99349.31
2023-01-19T18:12:00.722Z,99351.56
2023-01-19T18:14:30.423Z,99357.94
2023-01-19T18:16:59.435Z,99360.09
2023-01-19T18:19:30.041Z,99357.09
2023-01-19T18:21:58.918Z,99363.03
2023-01-19T18:24:27.522Z,99336.28
2023-01-19T18:26:56.038Z,99366.72
2023-01-19T18:29:25.926Z,99372.25
2023-01-19T18:31:54.504Z,99343.75
2023-01-19T18:34:23.401Z,99339.69
2023-01-19T18:36:51.996Z,99339.69
2023-01-19T18:39:20.465Z,99340.97
2023-01-19T18:41:48.897Z,99325.66
2023-01-19T18:44:17.677Z,99331.91
2023-01-19T18:46:48.230Z,99357.31
2023-01-19T18:49:17.419Z,99367.25
2023-01-19T18:51:46.305Z,99368.84
2023-01-19T18:54:14.915Z,99377.41
2023-01-19T18:56:50.570Z,99382.81
2023-01-19T18:59:19.516Z,99385.56
2023-01-19T19:01:49.903Z,99381.16
2023-01-19T19:04:21.422Z,99388.97
2023-01-19T19:06:50.883Z,99373.94
2023-01-19T19:09:19.549Z,99378.00
2023-01-19T19:11:47.990Z,99389.50
2023-01-19T19:14:16.699Z,99392.31
2023-01-19T19:16:46.141Z,99396.50
2023-01-19T19:19:17.582Z,99399.00
2023-01-19T19:21:46.942Z,99403.50
2023-01-19T19:24:15.689Z,99402.25
2023-01-19T19:26:44.437Z,99378.41
2023-01-19T19:29:13.594Z,99382.69
2023-01-19T19:31:42.252Z,99398.06
2023-01-19T19:34:12.851Z,99406.09
2023-01-19T19:36:43.841Z,99415.25
2023-01-19T19:39:12.644Z,99403.59
2023-01-19T19:41:43.002Z,99419.13
2023-01-19T19:44:14.622Z,99420.16
2023-01-19T19:46:44.873Z,99430.47
2023-01-19T19:49:21.755Z,99429.44
2023-01-19T19:51:55.124Z,99429.13
2023-01-19T19:54:27.505Z,99451.59
2023-01-19T19:57:00.957Z,99433.25
2023-01-19T19:59:32.792Z,99450.84
2023-01-19T20:02:03.800Z,99438.34
2023-01-19T20:04:33.198Z,99465.28
2023-01-19T20:07:03.541Z,99460.41
2023-01-19T20:09:33.301Z,99473.09
2023-01-19T20:12:01.912Z,99479.16
2023-01-19T20:14:30.428Z,99480.63
2023-01-19T20:16:59.504Z,99471.88
2023-01-19T20:19:30.522Z,99471.22
2023-01-19T20:22:01.187Z,99473.97
2023-01-19T20:24:31.876Z,99475.44
2023-01-19T20:27:00.741Z,99476.16
2023-01-19T20:29:29.168Z,99476.06
2023-01-19T20:31:58.570Z,99477.75
2023-01-19T20:34:32.954Z,99450.53
2023-01-19T20:37:02.172Z,99458.78
2023-01-19T20:39:33.704Z,99468.16
2023-01-19T20:42:02.672Z,99442.13
2023-01-19T20:44:32.020Z,99465.13
2023-01-19T20:47:01.319Z,99485.78
2023-01-19T20:49:30.125Z,99493.59
2023-01-19T20:51:59.236Z,99502.34
2023-01-19T20:54:30.699Z,99498.28
2023-01-19T20:57:01.220Z,99484.94
2023-01-19T20:59:30.373Z,99493.56
2023-01-19T21:01:59.362Z,99480.13
2023-01-19T21:04:28.228Z,99495.22
2023-01-19T21:06:58.043Z,99495.34
2023-01-19T21:09:26.717Z,99486.28
2023-01-19T21:11:57.353Z,99488.56
2023-01-19T21:14:30.187Z,99492.09
2023-01-19T21:16:59.432Z,99482.75
2023-01-19T21:19:31.055Z,99492.50
2023-01-19T21:21:59.611Z,99494.91
2023-01-19T21:24:29.866Z,99492.91
2023-01-19T21:26:58.440Z,99488.03
2023-01-19T21:29:28.315Z,99495.44
2023-01-19T21:31:56.894Z,99498.75
2023-01-19T21:34:25.443Z,99498.84
2023-01-19T21:36:54.230Z,99487.28
2023-01-19T21:39:22.961Z,99500.63
2023-01-19T21:41:51.587Z,99502.69
2023-01-19T21:44:20.209Z,99499.38
2023-01-19T21:46:50.414Z,99507.50
2023-01-19T21:49:21.022Z,99509.19
2023-01-19T21:51:50.797Z,99503.25
2023-01-19T21:54:19.905Z,99505.63
2023-01-19T21:56:48.347Z,99510.00
2023-01-19T21:59:19.696Z,99511.66
2023-01-19T22:01:50.355Z,99517.72
2023-01-19T22:04:19.751Z,99507.50
2023-01-19T22:06:48.667Z,99524.44
2023-01-19T22:09:17.266Z,99514.84
2023-01-19T22:11:46.069Z,99519.53
2023-01-19T22:14:14.496Z,99522.22
2023-01-19T22:16:43.065Z,99517.31
2023-01-19T22:19:16.669Z,99524.88
2023-01-19T22:21:45.110Z,99519.53
2023-01-19T22:24:13.810Z,99533.09
2023-01-19T22:26:42.352Z,99542.69
2023-01-19T22:29:12.310Z,99546.41
2023-01-19T22:31:41.158Z,99545.75
2023-01-19T22:34:10.686Z,99537.03
2023-01-19T22:36:42.892Z,99535.25
2023-01-19T22:39:13.175Z,99547.22
2023-01-19T22:41:42.998Z,99542.88
2023-01-19T22:44:13.767Z,99544.75
2023-01-19T22:46:42.391Z,99553.28
2023-01-19T22:49:14.120Z,99536.59
2023-01-19T22:51:44.356Z,99552.44
2023-01-19T22:54:12.940Z,99539.59
2023-01-19T22:56:42.150Z,99559.69
2023-01-19T22:59:11.024Z,99569.28
2023-01-19T23:01:42.939Z,99554.28
2023-01-19T23:04:14.991Z,99557.94
2023-01-19T23:06:47.312Z,99561.28
2023-01-19T23:09:16.564Z,99550.34
2023-01-19T23:11:50.484Z,99572.44
2023-01-19T23:14:21.261Z,99568.03
2023-01-19T23:16:49.803Z,99562.84
2023-01-19T23:19:19.002Z,99560.34
2023-01-19T23:21:52.141Z,99566.38
2023-01-19T23:24:20.660Z,99558.03
2023-01-19T23:26:50.788Z,99566.28
2023-01-19T23:29:19.886Z,99552.22
2023-01-19T23:31:50.268Z,99583.59
2023-01-19T23:34:19.229Z,99580.97
2023-01-19T23:36:49.152Z,99570.09
2023-01-19T23:39:19.750Z,99583.59
2023-01-19T23:41:49.235Z,99586.19
2023-01-19T23:44:18.834Z,99588.66
2023-01-19T23:46:47.555Z,99594.00
2023-01-19T23:49:16.179Z,99605.13
2023-01-19T23:51:44.713Z,99605.31
2023-01-19T23:54:14.621Z,99579.03
2023-01-19T23:56:43.576Z,99594.91
2023-01-19T23:59:13.635Z,99597.53
